Time;durP1;ratioP1;P1;durP2;ratioP2;P2;SDS_P1;SDS_P2;PMS_P1;PMS_P2;Temp;Humidity;BMP_temperature;BMP_pressure;BME280_temperature;BME280_humidity;BME280_pressure;Samples;Min_cycle;Max_cycle;Signal;HPM_P1;HPM_P2
2022/10/10 00:02:05;;;;;;;6.73;6.00;;;11.10;99.90;;;;;;5097044;28;20994;-87
2022/10/10 00:04:32;;;;;;;6.20;5.70;;;11.10;99.90;;;;;;5085617;28;20636;-86
2022/10/10 00:06:58;;;;;;;6.93;6.33;;;11.20;99.90;;;;;;5090345;28;20801;-86
2022/10/10 00:09:25;;;;;;;6.50;5.90;;;11.20;99.90;;;;;;5087231;28;20628;-86
2022/10/10 00:11:52;;;;;;;7.60;6.77;;;11.00;99.90;;;;;;5094561;28;20646;-86
2022/10/10 00:14:19;;;;;;;6.83;6.20;;;10.90;99.90;;;;;;5092791;28;20636;-86
2022/10/10 00:16:47;;;;;;;7.30;6.60;;;10.80;99.90;;;;;;5089174;28;20617;-87
2022/10/10 00:19:13;;;;;;;8.10;6.30;;;10.80;99.90;;;;;;5093004;28;20651;-87
2022/10/10 00:21:40;;;;;;;8.40;6.83;;;11.00;99.90;;;;;;5092910;28;20627;-86
2022/10/10 00:24:07;;;;;;;7.70;7.00;;;10.80;99.90;;;;;;5090421;28;21095;-86
2022/10/10 00:26:34;;;;;;;7.23;6.63;;;10.70;99.90;;;;;;5088678;28;20655;-87
2022/10/10 00:29:01;;;;;;;8.53;7.70;;;10.90;99.90;;;;;;5088674;28;20636;-87
2022/10/10 00:31:28;;;;;;;7.63;7.00;;;11.00;99.90;;;;;;5089362;28;20679;-86
2022/10/10 00:33:56;;;;;;;6.93;6.23;;;11.20;99.90;;;;;;5088893;28;20627;-86
2022/10/10 00:36:23;;;;;;;8.10;7.30;;;10.80;99.90;;;;;;5091879;28;20623;-86
2022/10/10 00:38:49;;;;;;;9.07;7.40;;;11.00;99.90;;;;;;5086928;28;20657;-86
2022/10/10 00:41:16;;;;;;;8.23;7.53;;;10.70;99.90;;;;;;5093072;28;20624;-86
2022/10/10 00:43:43;;;;;;;8.00;7.40;;;11.00;99.90;;;;;;5088461;28;20628;-86
2022/10/10 00:46:10;;;;;;;8.53;7.83;;;10.70;99.90;;;;;;5091175;28;21190;-86
2022/10/10 00:48:40;;;;;;;9.17;8.30;;;11.00;99.90;;;;;;5090671;28;20666;-86
2022/10/10 00:51:11;;;;;;;8.00;7.20;;;10.90;99.90;;;;;;5093204;28;20620;-86
2022/10/10 00:53:42;;;;;;;8.47;7.63;;;11.30;99.90;;;;;;5087202;28;20656;-86
2022/10/10 00:56:10;;;;;;;7.80;7.20;;;11.00;99.90;;;;;;5093016;28;20611;-86
2022/10/10 00:58:41;;;;;;;9.03;7.97;;;11.00;99.90;;;;;;5090986;28;20652;-86
2022/10/10 01:01:10;;;;;;;8.40;7.63;;;11.30;99.90;;;;;;5092321;28;20635;-86
2022/10/10 01:03:37;;;;;;;8.40;7.63;;;11.30;99.90;;;;;;5092885;28;21375;-86
2022/10/10 01:06:05;;;;;;;8.57;7.50;;;11.10;99.90;;;;;;5089135;28;21257;-86
2022/10/10 01:08:33;;;;;;;8.20;7.40;;;11.30;99.90;;;;;;5088075;28;20656;-86
2022/10/10 01:11:18;;;;;;;7.93;7.13;;;10.90;99.90;;;;;;5091286;28;20628;-86
2022/10/10 01:13:53;;;;;;;7.53;6.90;;;11.00;99.90;;;;;;5095362;28;20988;-86
2022/10/10 01:16:27;;;;;;;7.03;6.43;;;11.10;99.90;;;;;;5087910;28;20634;-86
2022/10/10 01:18:59;;;;;;;8.23;7.53;;;11.00;99.90;;;;;;5088018;28;20643;-86
2022/10/10 01:21:32;;;;;;;8.87;8.03;;;11.20;99.90;;;;;;5088776;28;20612;-86
2022/10/10 01:24:31;;;;;;;9.30;7.97;;;11.10;99.90;;;;;;5087496;28;20631;-86
2022/10/10 01:27:17;;;;;;;9.40;8.47;;;11.50;99.90;;;;;;5094912;28;21045;-86
2022/10/10 01:29:50;;;;;;;9.40;8.60;;;11.60;99.90;;;;;;5088026;28;20620;-86
2022/10/10 01:32:23;;;;;;;9.40;8.00;;;11.00;99.90;;;;;;5087085;28;20624;-87
2022/10/10 01:35:00;;;;;;;8.70;7.90;;;10.80;99.90;;;;;;5091787;28;21186;-87
2022/10/10 01:37:34;;;;;;;10.10;9.10;;;11.00;99.90;;;;;;5088492;28;21499;-87
2022/10/10 01:40:09;;;;;;;9.40;8.47;;;11.40;99.90;;;;;;5097782;28;20611;-88
2022/10/10 01:42:43;;;;;;;8.73;7.93;;;11.30;99.90;;;;;;5091203;28;20612;-87
2022/10/10 01:45:12;;;;;;;9.50;8.53;;;11.30;99.90;;;;;;5085128;28;20623;-88
2022/10/10 01:47:39;;;;;;;9.70;8.70;;;10.90;99.90;;;;;;5085639;28;20673;-88
2022/10/10 01:50:10;;;;;;;9.70;8.80;;;11.30;99.90;;;;;;5088509;28;21166;-87
2022/10/10 01:52:48;;;;;;;8.63;7.73;;;11.00;99.90;;;;;;5085056;28;20670;-87
2022/10/10 01:55:28;;;;;;;7.90;7.20;;;11.50;99.90;;;;;;5080364;28;20711;-87
2022/10/10 01:58:06;;;;;;;7.83;7.10;;;11.00;99.90;;;;;;5091092;28;21220;-87
2022/10/10 02:00:44;;;;;;;8.60;7.83;;;11.40;99.90;;;;;;5092099;28;20614;-87
2022/10/10 02:03:15;;;;;;;7.87;7.10;;;11.30;99.90;;;;;;5096161;28;20631;-87
2022/10/10 02:05:50;;;;;;;9.00;8.10;;;11.30;99.90;;;;;;5089053;28;20623;-87
2022/10/10 02:08:23;;;;;;;8.33;7.53;;;11.30;99.90;;;;;;5089439;28;20673;-87
2022/10/10 02:10:54;;;;;;;10.20;8.30;;;10.80;99.90;;;;;;5095646;28;20681;-87
2022/10/10 02:13:28;;;;;;;8.77;7.97;;;11.20;99.90;;;;;;5089776;28;20623;-86
2022/10/10 02:15:58;;;;;;;8.83;8.00;;;11.30;99.90;;;;;;5107676;28;20615;-87
2022/10/10 02:18:28;;;;;;;8.77;7.90;;;11.00;99.90;;;;;;5102869;28;20685;-88
2022/10/10 02:20:56;;;;;;;8.60;8.00;;;10.90;99.90;;;;;;5099995;28;21147;-85
2022/10/10 02:23:23;;;;;;;9.27;8.43;;;11.40;99.90;;;;;;5086269;28;20624;-86
2022/10/10 02:25:53;;;;;;;9.17;8.00;;;11.10;99.90;;;;;;5089362;28;20627;-85
2022/10/10 02:28:25;;;;;;;9.83;8.40;;;11.30;99.90;;;;;;5092246;28;20655;-86
2022/10/10 02:30:59;;;;;;;13.00;9.37;;;11.50;99.90;;;;;;5085453;28;20631;-86
2022/10/10 02:33:32;;;;;;;10.73;8.67;;;11.00;99.90;;;;;;5090009;28;20638;-87
2022/10/10 02:36:00;;;;;;;8.77;7.93;;;11.20;99.90;;;;;;5088117;28;21196;-87
2022/10/10 02:38:29;;;;;;;15.87;7.57;;;10.90;99.90;;;;;;5089503;28;20635;-87
2022/10/10 02:40:57;;;;;;;8.90;7.90;;;11.20;99.90;;;;;;5088963;28;20635;-87
2022/10/10 02:43:24;;;;;;;9.67;8.77;;;11.00;99.90;;;;;;5086314;28;21203;-86
2022/10/10 02:45:51;;;;;;;9.50;8.70;;;11.30;99.90;;;;;;5079576;28;20632;-86
2022/10/10 02:48:20;;;;;;;12.33;9.23;;;10.80;99.90;;;;;;5085962;28;20691;-86
2022/10/10 02:50:46;;;;;;;9.80;8.57;;;10.80;99.90;;;;;;5088489;28;21581;-86
2022/10/10 02:53:13;;;;;;;8.97;8.00;;;11.00;99.90;;;;;;5088440;28;20635;-87
2022/10/10 02:55:40;;;;;;;9.03;8.07;;;10.80;99.90;;;;;;5089120;28;21581;-87
2022/10/10 02:58:07;;;;;;;9.47;8.67;;;11.20;99.90;;;;;;5089869;28;20644;-87
2022/10/10 03:00:34;;;;;;;10.70;7.83;;;11.30;99.90;;;;;;5088843;28;20620;-86
2022/10/10 03:03:01;;;;;;;8.00;7.27;;;11.10;99.90;;;;;;5079472;28;20647;-87
2022/10/10 03:05:29;;;;;;;8.03;7.33;;;11.00;99.90;;;;;;5075608;28;20603;-87
2022/10/10 03:07:55;;;;;;;8.17;7.40;;;11.30;99.90;;;;;;5089463;28;21223;-86
2022/10/10 03:10:22;;;;;;;9.30;8.13;;;10.90;99.90;;;;;;5089911;28;20631;-87
2022/10/10 03:12:49;;;;;;;8.87;7.67;;;11.30;99.90;;;;;;5089415;28;20637;-87
2022/10/10 03:15:16;;;;;;;9.00;7.97;;;11.10;99.90;;;;;;5090470;28;20619;-87
2022/10/10 03:17:43;;;;;;;8.73;7.97;;;11.40;99.90;;;;;;5089222;28;21276;-87
2022/10/10 03:20:11;;;;;;;9.93;8.47;;;11.50;99.90;;;;;;5095371;28;20638;-87
2022/10/10 03:22:39;;;;;;;8.70;7.80;;;10.90;99.90;;;;;;5090392;28;20659;-87
2022/10/10 03:25:06;;;;;;;9.63;8.80;;;10.90;99.90;;;;;;5092593;28;20626;-87
2022/10/10 03:27:33;;;;;;;11.90;8.03;;;11.40;99.90;;;;;;5091093;28;21249;-87
2022/10/10 03:30:24;;;;;;;8.20;7.40;;;11.00;99.90;;;;;;5094106;28;20636;-87
2022/10/10 03:32:51;;;;;;;8.07;7.47;;;11.40;99.90;;;;;;5093880;28;20622;-87
2022/10/10 03:35:17;;;;;;;8.63;7.83;;;11.30;99.90;;;;;;5097558;28;20628;-87
2022/10/10 03:37:46;;;;;;;8.30;7.07;;;11.30;99.90;;;;;;5094836;28;20645;-87
2022/10/10 03:40:12;;;;;;;8.40;7.80;;;10.90;99.90;;;;;;5098414;28;20662;-87
2022/10/10 03:42:39;;;;;;;9.27;8.47;;;10.90;99.90;;;;;;5094537;28;20982;-86
2022/10/10 03:45:06;;;;;;;8.40;7.70;;;10.80;99.90;;;;;;5089903;28;20639;-87
2022/10/10 03:47:33;;;;;;;9.63;8.73;;;11.20;99.90;;;;;;5092505;28;20682;-87
2022/10/10 03:50:00;;;;;;;9.77;7.97;;;10.80;99.90;;;;;;5092102;28;20733;-88
2022/10/10 03:52:27;;;;;;;9.60;8.50;;;10.70;99.90;;;;;;5092512;28;20631;-88
2022/10/10 03:54:55;;;;;;;11.00;10.10;;;11.10;99.90;;;;;;5084809;28;20635;-87
2022/10/10 03:57:21;;;;;;;9.47;8.53;;;10.70;99.90;;;;;;5092382;28;20639;-88
2022/10/10 03:59:48;;;;;;;10.20;9.23;;;10.70;99.90;;;;;;5095539;28;20632;-88
2022/10/10 04:02:15;;;;;;;12.57;9.13;;;10.50;99.90;;;;;;5090650;28;20976;-87
2022/10/10 04:04:42;;;;;;;8.60;7.90;;;10.70;99.90;;;;;;5090108;28;20624;-88
2022/10/10 04:07:09;;;;;;;9.20;8.40;;;11.00;99.90;;;;;;5088861;28;20671;-87
2022/10/10 04:09:35;;;;;;;10.60;9.10;;;10.90;99.90;;;;;;5091648;28;20631;-88
2022/10/10 04:12:04;;;;;;;9.93;9.17;;;11.00;99.90;;;;;;5096397;28;20632;-88
2022/10/10 04:14:31;;;;;;;9.53;8.63;;;11.00;99.90;;;;;;5093094;28;20635;-88
2022/10/10 04:16:58;;;;;;;10.53;8.20;;;10.70;99.90;;;;;;5093019;28;20639;-88
2022/10/10 04:19:25;;;;;;;9.00;8.20;;;10.90;99.90;;;;;;5095096;28;21150;-88
2022/10/10 04:21:52;;;;;;;10.50;9.50;;;11.00;99.90;;;;;;5089728;28;20624;-88
2022/10/10 04:24:18;;;;;;;9.47;8.67;;;11.00;99.90;;;;;;5093705;28;20630;-88
2022/10/10 04:26:45;;;;;;;9.47;8.23;;;11.00;99.90;;;;;;5094621;28;20694;-88
2022/10/10 04:29:13;;;;;;;9.53;8.67;;;10.90;99.90;;;;;;5090334;28;20631;-88
2022/10/10 04:31:40;;;;;;;9.87;8.97;;;11.00;99.90;;;;;;5088829;28;20613;-88
2022/10/10 04:34:07;;;;;;;10.50;9.60;;;10.60;99.90;;;;;;5093286;28;20620;-88
2022/10/10 04:36:33;;;;;;;10.17;9.27;;;11.00;99.90;;;;;;5093188;28;20619;-89
2022/10/10 04:39:00;;;;;;;13.37;9.90;;;11.00;99.90;;;;;;5096740;28;20691;-88
2022/10/10 04:41:27;;;;;;;11.57;10.30;;;10.70;99.90;;;;;;5096171;28;20626;-87
2022/10/10 04:43:54;;;;;;;10.77;9.53;;;10.60;99.90;;;;;;5088497;28;20631;-88
2022/10/10 04:46:22;;;;;;;10.13;9.07;;;10.60;99.90;;;;;;5093696;28;20646;-87
2022/10/10 04:48:49;;;;;;;10.20;9.17;;;10.50;99.90;;;;;;5091396;28;20682;-88
2022/10/10 04:51:17;;;;;;;9.60;8.67;;;10.60;99.90;;;;;;5089679;28;20626;-87
2022/10/10 04:53:44;;;;;;;9.23;8.43;;;10.90;99.90;;;;;;5091425;28;20627;-88
2022/10/10 04:56:11;;;;;;;10.60;9.50;;;10.90;99.90;;;;;;5090606;28;20726;-87
2022/10/10 04:58:38;;;;;;;11.07;9.93;;;10.80;99.90;;;;;;5092041;28;20721;-87
2022/10/10 05:01:05;;;;;;;14.90;13.60;;;10.80;99.90;;;;;;5095387;28;20714;-86
2022/10/10 05:03:33;;;;;;;12.40;11.20;;;10.40;99.90;;;;;;5088781;28;20673;-86
2022/10/10 05:06:00;;;;;;;11.90;10.80;;;10.40;99.90;;;;;;5092705;28;20635;-86
2022/10/10 05:08:26;;;;;;;10.63;9.53;;;10.60;99.90;;;;;;5090296;28;20675;-86
2022/10/10 05:10:53;;;;;;;9.80;8.97;;;10.70;99.90;;;;;;5080135;28;20639;-87
2022/10/10 05:13:20;;;;;;;10.13;9.33;;;10.80;99.90;;;;;;5076315;28;20651;-87
2022/10/10 05:15:50;;;;;;;10.23;9.20;;;10.80;99.90;;;;;;5086819;28;20628;-87
2022/10/10 05:18:17;;;;;;;12.00;10.30;;;10.80;99.90;;;;;;5074237;28;21032;-88
2022/10/10 05:20:46;;;;;;;12.03;11.03;;;11.00;99.90;;;;;;5084760;28;20658;-87
2022/10/10 05:23:13;;;;;;;11.10;10.00;;;10.70;99.90;;;;;;5084525;28;20659;-87
2022/10/10 05:25:43;;;;;;;10.80;9.80;;;10.70;99.90;;;;;;5091504;28;20632;-87
2022/10/10 05:28:11;;;;;;;9.93;9.03;;;10.30;99.90;;;;;;5093909;28;20718;-87
2022/10/10 05:30:38;;;;;;;12.73;11.73;;;10.40;99.90;;;;;;5087341;28;20620;-87
2022/10/10 05:33:04;;;;;;;13.43;12.10;;;10.30;99.90;;;;;;5079673;28;20655;-87
2022/10/10 05:35:31;;;;;;;12.27;10.83;;;10.20;99.90;;;;;;5088123;28;20720;-87
2022/10/10 05:37:59;;;;;;;11.80;10.80;;;10.40;99.90;;;;;;5088092;28;20628;-87
2022/10/10 05:40:26;;;;;;;11.10;9.93;;;10.30;99.90;;;;;;5089002;28;20625;-87
2022/10/10 05:42:53;;;;;;;10.97;9.87;;;10.90;99.90;;;;;;5088555;28;20762;-87
2022/10/10 05:45:20;;;;;;;9.93;9.00;;;10.40;99.90;;;;;;5086135;28;20628;-87
2022/10/10 05:47:48;;;;;;;10.43;9.43;;;10.40;99.90;;;;;;5089822;28;20714;-87
2022/10/10 05:50:27;;;;;;;9.80;9.10;;;10.60;99.90;;;;;;5089684;28;20622;-88
2022/10/10 05:52:54;;;;;;;10.53;9.47;;;10.60;99.90;;;;;;5093724;28;20652;-87
2022/10/10 05:55:22;;;;;;;10.40;9.40;;;10.20;99.90;;;;;;5091427;28;20620;-87
2022/10/10 05:57:49;;;;;;;15.43;9.80;;;10.30;99.90;;;;;;5083834;28;20708;-88
2022/10/10 06:00:16;;;;;;;11.47;10.47;;;10.30;99.90;;;;;;5089779;28;20624;-87
2022/10/10 06:02:42;;;;;;;12.13;10.50;;;10.70;99.90;;;;;;5091711;28;20656;-87
2022/10/10 06:05:09;;;;;;;12.50;11.50;;;10.40;99.90;;;;;;5086349;28;21149;-87
2022/10/10 06:07:37;;;;;;;11.80;10.80;;;10.60;99.90;;;;;;5085478;28;21103;-87
2022/10/10 06:10:04;;;;;;;10.63;9.73;;;10.90;99.90;;;;;;5089898;28;21204;-87
2022/10/10 06:12:33;;;;;;;10.53;9.63;;;11.10;99.90;;;;;;5086867;28;20647;-86
2022/10/10 06:15:02;;;;;;;12.87;11.77;;;11.10;99.90;;;;;;5095967;28;20632;-86
2022/10/10 06:17:28;;;;;;;10.23;9.33;;;11.10;99.90;;;;;;5109626;28;20634;-86
2022/10/10 06:19:55;;;;;;;10.40;9.50;;;10.60;99.90;;;;;;5113534;28;20616;-86
2022/10/10 06:22:22;;;;;;;10.43;9.43;;;10.80;99.90;;;;;;5113633;28;20632;-86
2022/10/10 06:24:48;;;;;;;10.30;9.50;;;11.20;99.90;;;;;;5100472;28;20620;-86
2022/10/10 06:27:15;;;;;;;11.50;10.30;;;11.30;99.90;;;;;;5092967;28;20621;-86
2022/10/10 06:29:43;;;;;;;11.80;9.97;;;11.10;99.90;;;;;;5089865;28;21508;-86
2022/10/10 06:32:10;;;;;;;10.07;9.17;;;11.40;99.90;;;;;;5087830;28;20648;-85
2022/10/10 06:34:37;;;;;;;10.83;9.83;;;11.20;99.90;;;;;;5089159;28;21165;-85
2022/10/10 06:37:04;;;;;;;10.97;9.87;;;11.40;99.90;;;;;;5093774;28;20631;-85
2022/10/10 06:39:31;;;;;;;10.83;9.93;;;11.50;99.90;;;;;;5097864;28;20638;-85
2022/10/10 06:41:57;;;;;;;10.63;9.73;;;11.70;99.90;;;;;;5089503;28;20651;-86
2022/10/10 06:44:24;;;;;;;10.43;9.60;;;11.30;99.90;;;;;;5089578;28;20624;-85
2022/10/10 06:46:52;;;;;;;13.53;10.07;;;11.70;99.90;;;;;;5089915;28;20643;-85
2022/10/10 06:49:19;;;;;;;13.50;10.83;;;11.30;99.90;;;;;;5092631;28;20670;-86
2022/10/10 06:51:46;;;;;;;15.13;11.33;;;11.80;99.90;;;;;;5086347;28;20674;-86
2022/10/10 06:54:13;;;;;;;10.20;9.23;;;11.90;99.90;;;;;;5095099;28;21176;-85
2022/10/10 06:56:39;;;;;;;13.20;10.43;;;11.90;99.90;;;;;;5093835;28;21320;-86
2022/10/10 06:59:07;;;;;;;11.43;10.23;;;11.50;99.90;;;;;;5093361;28;20625;-86
2022/10/10 07:01:35;;;;;;;13.03;10.43;;;11.60;99.90;;;;;;5076369;28;21233;-86
2022/10/10 07:04:04;;;;;;;14.80;10.77;;;11.80;99.90;;;;;;5072562;28;20642;-86
2022/10/10 07:06:30;;;;;;;16.77;10.80;;;12.10;99.90;;;;;;5078627;28;20656;-86
2022/10/10 07:08:58;;;;;;;11.70;10.50;;;11.90;99.90;;;;;;5072663;28;20696;-86
2022/10/10 07:11:24;;;;;;;12.53;10.80;;;11.90;99.90;;;;;;5073134;28;20659;-86
2022/10/10 07:13:53;;;;;;;14.63;11.03;;;11.90;99.90;;;;;;5073477;28;20624;-86
2022/10/10 07:16:20;;;;;;;11.03;9.17;;;12.10;99.90;;;;;;5074731;28;20635;-86
2022/10/10 07:18:46;;;;;;;12.13;9.00;;;12.50;99.90;;;;;;5084624;28;20600;-86
2022/10/10 07:21:15;;;;;;;12.80;10.30;;;12.60;99.90;;;;;;5073836;28;20631;-86
2022/10/10 07:23:42;;;;;;;11.70;10.60;;;12.30;99.90;;;;;;5071499;28;20766;-85
2022/10/10 07:26:12;;;;;;;13.20;9.50;;;12.60;99.90;;;;;;5070562;28;20639;-87
2022/10/10 07:28:39;;;;;;;11.23;9.57;;;12.60;99.90;;;;;;5071067;28;20758;-87
2022/10/10 07:31:08;;;;;;;10.20;8.63;;;12.50;99.90;;;;;;5070975;28;20643;-87
2022/10/10 07:33:37;;;;;;;9.87;8.90;;;12.30;99.90;;;;;;5070445;28;20655;-87
2022/10/10 07:36:05;;;;;;;10.93;8.07;;;12.90;99.90;;;;;;5070700;28;20705;-87
2022/10/10 07:38:34;;;;;;;11.00;8.23;;;13.10;99.90;;;;;;5071971;28;20632;-86
2022/10/10 07:41:06;;;;;;;12.30;8.03;;;13.20;99.90;;;;;;5071423;28;20640;-87
2022/10/10 07:43:33;;;;;;;9.07;8.17;;;12.90;99.90;;;;;;5073164;28;20644;-84
2022/10/10 07:46:00;;;;;;;10.30;8.77;;;13.20;99.90;;;;;;5071002;28;20669;-85
2022/10/10 07:48:27;;;;;;;8.47;7.67;;;13.30;99.90;;;;;;5087629;28;20663;-85
2022/10/10 07:50:53;;;;;;;11.03;8.30;;;13.50;99.90;;;;;;5086718;28;20726;-85
2022/10/10 07:53:21;;;;;;;11.10;10.00;;;13.30;99.90;;;;;;5085925;28;20644;-87
2022/10/10 07:55:50;;;;;;;12.90;9.00;;;13.40;99.90;;;;;;5084845;28;20688;-86
2022/10/10 07:58:17;;;;;;;15.03;9.10;;;13.50;99.90;;;;;;5086930;28;20646;-86
2022/10/10 08:00:43;;;;;;;10.83;9.70;;;13.90;99.90;;;;;;5091692;28;20958;-87
2022/10/10 08:03:11;;;;;;;9.00;8.20;;;14.20;99.90;;;;;;5088862;28;20643;-86
2022/10/10 08:05:40;;;;;;;8.93;8.03;;;14.20;99.90;;;;;;5084762;28;21170;-87
2022/10/10 08:08:07;;;;;;;8.00;7.30;;;14.30;99.90;;;;;;5091064;28;20791;-87
2022/10/10 08:10:33;;;;;;;10.13;8.20;;;14.40;99.90;;;;;;5090856;28;20635;-86
2022/10/10 08:13:01;;;;;;;9.50;8.60;;;14.50;99.90;;;;;;5094308;28;21094;-87
2022/10/10 08:15:28;;;;;;;11.13;10.07;;;14.50;99.90;;;;;;5091057;28;20629;-86
2022/10/10 08:17:55;;;;;;;12.10;8.60;;;14.70;99.90;;;;;;5092924;28;20615;-87
2022/10/10 08:20:22;;;;;;;10.90;8.70;;;14.90;99.90;;;;;;5086663;28;20758;-88
2022/10/10 08:22:49;;;;;;;6.87;6.20;;;14.90;99.90;;;;;;5086185;28;20656;-87
2022/10/10 08:25:17;;;;;;;9.00;7.07;;;14.90;99.90;;;;;;5091278;28;20631;-86
2022/10/10 08:27:44;;;;;;;7.20;6.50;;;14.90;99.90;;;;;;5081846;28;20687;-86
2022/10/10 08:30:13;;;;;;;7.30;6.57;;;14.50;99.90;;;;;;5088539;28;20624;-86
2022/10/10 08:32:40;;;;;;;7.50;6.70;;;14.60;99.90;;;;;;5086835;28;20645;-86
2022/10/10 08:35:07;;;;;;;7.13;6.53;;;14.80;99.90;;;;;;5091239;28;20655;-87
2022/10/10 08:37:35;;;;;;;8.97;6.73;;;15.00;99.90;;;;;;5089057;28;20670;-86
2022/10/10 08:40:02;;;;;;;7.60;6.80;;;15.40;99.90;;;;;;5094598;28;20682;-86
2022/10/10 08:42:33;;;;;;;11.07;5.93;;;15.50;99.90;;;;;;5089202;28;21021;-86
2022/10/10 08:45:04;;;;;;;7.07;6.27;;;15.60;99.90;;;;;;5092562;28;20646;-87
2022/10/10 08:47:39;;;;;;;5.90;5.30;;;15.40;99.90;;;;;;5087821;28;20832;-86
2022/10/10 08:50:14;;;;;;;8.37;5.47;;;15.20;99.90;;;;;;5094627;28;20671;-87
2022/10/10 08:52:46;;;;;;;6.97;6.47;;;15.30;99.90;;;;;;5088518;28;20661;-86
2022/10/10 08:55:17;;;;;;;9.03;6.00;;;15.50;99.90;;;;;;5090772;28;21252;-87
2022/10/10 08:57:49;;;;;;;8.80;6.73;;;15.70;99.90;;;;;;5094858;28;20658;-87
2022/10/10 09:00:20;;;;;;;7.90;7.10;;;15.80;99.90;;;;;;5092611;28;20629;-86
2022/10/10 09:02:51;;;;;;;7.33;6.00;;;15.80;99.90;;;;;;5094310;28;20694;-85
2022/10/10 09:05:20;;;;;;;14.63;6.80;;;15.70;99.90;;;;;;5090796;28;20620;-85
2022/10/10 09:08:10;;;;;;;8.03;6.20;;;15.60;99.90;;;;;;5087818;28;21019;-86
2022/10/10 09:10:46;;;;;;;7.90;7.30;;;15.40;99.90;;;;;;5094519;28;20595;-86
2022/10/10 09:13:22;;;;;;;8.50;7.30;;;15.60;99.90;;;;;;5092632;28;21016;-85
2022/10/10 09:15:55;;;;;;;8.67;6.20;;;15.50;99.90;;;;;;5086522;28;20659;-86
2022/10/10 09:18:41;;;;;;;6.37;5.67;;;15.70;99.90;;;;;;5091039;28;20736;-86
2022/10/10 09:21:15;;;;;;;7.07;6.37;;;15.30;99.90;;;;;;5085987;28;21032;-85
2022/10/10 09:23:47;;;;;;;7.03;6.43;;;15.50;99.90;;;;;;5090924;28;20620;-86
2022/10/10 09:26:16;;;;;;;8.40;5.90;;;15.80;99.90;;;;;;5072042;28;21592;-86
2022/10/10 09:28:47;;;;;;;6.27;5.77;;;16.00;99.90;;;;;;5069498;28;20692;-86
2022/10/10 09:31:18;;;;;;;7.03;5.90;;;16.30;99.90;;;;;;5070366;28;20624;-86
2022/10/10 09:33:51;;;;;;;5.90;5.33;;;16.50;99.90;;;;;;5071364;28;20636;-86
2022/10/10 09:36:23;;;;;;;12.33;6.63;;;16.50;99.90;;;;;;5071335;28;20647;-87
2022/10/10 09:38:54;;;;;;;8.30;6.20;;;16.60;99.90;;;;;;5052981;28;20652;-86
2022/10/10 09:41:31;;;;;;;8.47;6.20;;;16.80;99.90;;;;;;5073778;28;20678;-86
2022/10/10 09:44:02;;;;;;;10.23;5.83;;;17.00;99.90;;;;;;5071224;28;20647;-86
2022/10/10 09:46:29;;;;;;;8.37;5.87;;;17.30;99.90;;;;;;5083129;28;20639;-87
2022/10/10 09:48:57;;;;;;;7.37;5.90;;;17.80;99.90;;;;;;5075098;28;20682;-86
2022/10/10 09:51:24;;;;;;;9.40;5.20;;;17.50;99.90;;;;;;5070569;28;20698;-86
2022/10/10 09:53:53;;;;;;;6.93;6.23;;;16.90;99.90;;;;;;5072797;28;20831;-86
2022/10/10 09:56:23;;;;;;;7.33;5.80;;;17.60;99.90;;;;;;5075454;28;20666;-87
2022/10/10 09:58:52;;;;;;;6.37;5.53;;;17.50;99.90;;;;;;5076487;28;20641;-86
2022/10/10 10:01:20;;;;;;;8.13;5.20;;;18.30;99.90;;;;;;5072405;28;20636;-86
2022/10/10 10:04:13;;;;;;;6.80;4.57;;;19.40;99.90;;;;;;5071168;28;21153;-86
2022/10/10 10:06:44;;;;;;;8.77;5.53;;;20.00;99.90;;;;;;5071095;28;20740;-86
2022/10/10 10:09:17;;;;;;;5.50;4.67;;;20.00;99.90;;;;;;5071408;28;20717;-86
2022/10/10 10:11:46;;;;;;;7.83;5.30;;;19.60;99.90;;;;;;5070817;28;20754;-86
2022/10/10 10:14:25;;;;;;;5.83;4.90;;;18.30;99.90;;;;;;5067913;28;20629;-86
2022/10/10 10:16:54;;;;;;;8.23;5.00;;;18.80;99.90;;;;;;5071406;28;20659;-86
2022/10/10 10:19:33;;;;;;;6.30;5.70;;;18.70;99.90;;;;;;5071990;28;20632;-87
2022/10/10 10:22:01;;;;;;;5.53;5.00;;;18.50;99.90;;;;;;5080440;28;20651;-87
2022/10/10 10:24:35;;;;;;;5.53;4.80;;;19.10;99.90;;;;;;5068696;28;20644;-87
2022/10/10 10:27:21;;;;;;;8.40;5.40;;;19.10;99.90;;;;;;5071063;28;20951;-87
2022/10/10 10:29:50;;;;;;;8.57;5.33;;;19.10;99.90;;;;;;5069553;28;20764;-86
2022/10/10 10:32:35;;;;;;;5.00;4.60;;;18.90;99.90;;;;;;5068978;28;20649;-87
2022/10/10 10:35:14;;;;;;;5.83;5.33;;;19.10;99.90;;;;;;5069741;28;20645;-87
2022/10/10 10:37:52;;;;;;;6.53;4.63;;;19.50;99.90;;;;;;5069806;28;20722;-87
2022/10/10 10:40:30;;;;;;;9.20;4.20;;;20.00;99.90;;;;;;5070691;28;20620;-86
2022/10/10 10:43:31;;;;;;;6.37;3.80;;;20.20;99.90;;;;;;5071628;28;20664;-88
2022/10/10 10:46:09;;;;;;;5.57;4.40;;;20.80;99.90;;;;;;5069684;28;20633;-88
2022/10/10 10:48:42;;;;;;;5.23;4.77;;;21.60;99.90;;;;;;5071408;28;20648;-88
2022/10/10 10:51:24;;;;;;;5.77;4.17;;;22.10;99.90;;;;;;5071631;28;20652;-88
2022/10/10 10:54:00;;;;;;;5.23;4.13;;;22.30;99.90;;;;;;5072186;28;21255;-88
2022/10/10 10:56:35;;;;;;;7.77;4.70;;;22.50;99.90;;;;;;5069096;28;20662;-88
2022/10/10 10:59:18;;;;;;;4.57;4.13;;;23.10;99.90;;;;;;5070688;28;20621;-88
2022/10/10 11:01:56;;;;;;;5.77;3.97;;;23.30;99.90;;;;;;5069018;28;20663;-88
2022/10/10 11:04:47;;;;;;;7.37;4.27;;;24.20;99.90;;;;;;5070570;28;21032;-87
2022/10/10 11:07:20;;;;;;;4.17;3.70;;;23.20;99.90;;;;;;5069807;28;20629;-87
2022/10/10 11:09:53;;;;;;;3.70;3.40;;;22.50;99.90;;;;;;5071574;28;20746;-87
2022/10/10 11:12:43;;;;;;;5.00;3.93;;;22.70;99.90;;;;;;5070163;28;20656;-87
2022/10/10 11:15:16;;;;;;;5.80;4.00;;;22.20;99.90;;;;;;5070661;28;20639;-87
2022/10/10 11:17:47;;;;;;;5.40;3.87;;;22.90;99.90;;;;;;5070446;28;20626;-87
2022/10/10 11:20:23;;;;;;;4.73;3.93;;;22.80;99.90;;;;;;5072238;28;20601;-87
2022/10/10 11:22:59;;;;;;;4.80;4.27;;;21.10;99.90;;;;;;5072911;28;20651;-87
2022/10/10 11:25:32;;;;;;;4.50;4.10;;;22.10;99.90;;;;;;5069191;28;20599;-87
2022/10/10 11:28:03;;;;;;;6.30;3.57;;;23.70;99.90;;;;;;5072926;28;20640;-86
2022/10/10 11:30:34;;;;;;;5.30;3.37;;;24.40;99.90;;;;;;5054836;28;20660;-88
2022/10/10 11:33:13;;;;;;;4.83;4.30;;;25.90;95.80;;;;;;5070554;28;20673;-88
2022/10/10 11:35:46;;;;;;;4.53;3.60;;;26.60;91.70;;;;;;5070966;28;20695;-88
2022/10/10 11:38:22;;;;;;;3.80;3.10;;;28.10;83.60;;;;;;5073585;28;20651;-88
2022/10/10 11:40:55;;;;;;;5.73;3.80;;;28.10;82.10;;;;;;5073494;28;20627;-89
2022/10/10 11:43:33;;;;;;;6.37;3.67;;;27.90;81.10;;;;;;5075537;28;20720;-89
2022/10/10 11:46:07;;;;;;;4.00;3.60;;;30.20;75.80;;;;;;5072622;28;20692;-88
2022/10/10 11:48:43;;;;;;;3.70;3.40;;;29.30;71.70;;;;;;5073800;28;21107;-89
2022/10/10 11:51:22;;;;;;;3.40;2.93;;;30.90;66.20;;;;;;5074510;28;20611;-89
2022/10/10 11:53:56;;;;;;;7.13;4.20;;;28.30;69.60;;;;;;5087473;28;20719;-89
2022/10/10 11:56:29;;;;;;;5.40;3.97;;;29.50;69.30;;;;;;5086105;28;21274;-89
2022/10/10 11:59:01;;;;;;;4.33;3.93;;;29.80;67.20;;;;;;5070754;28;20639;-89
2022/10/10 12:01:31;;;;;;;3.93;3.53;;;29.80;67.60;;;;;;5073689;28;20658;-88
2022/10/10 12:03:59;;;;;;;5.33;4.07;;;28.10;72.80;;;;;;5073473;28;20959;-88
2022/10/10 12:06:31;;;;;;;4.60;3.43;;;27.00;81.90;;;;;;5074654;28;20623;-89
2022/10/10 12:09:03;;;;;;;5.13;3.70;;;28.30;72.40;;;;;;5074334;28;21067;-88
2022/10/10 12:11:35;;;;;;;3.30;3.10;;;26.20;78.30;;;;;;5075939;28;20952;-88
2022/10/10 12:14:07;;;;;;;7.60;3.37;;;28.50;73.50;;;;;;5078399;28;20659;-88
2022/10/10 12:16:36;;;;;;;6.27;3.60;;;29.60;69.30;;;;;;5073603;28;20643;-88
2022/10/10 12:19:06;;;;;;;3.27;2.97;;;27.80;75.30;;;;;;5077090;28;20631;-88
2022/10/10 12:21:53;;;;;;;4.27;2.87;;;28.90;70.50;;;;;;5079178;28;21855;-88
2022/10/10 12:24:21;;;;;;;6.80;3.33;;;28.10;70.30;;;;;;5081114;28;20777;-88
2022/10/10 12:27:27;;;;;;;5.23;3.23;;;27.70;71.40;;;;;;5080883;28;20627;-88
2022/10/10 12:30:18;;;;;;;7.47;2.40;;;26.80;71.90;;;;;;5081174;28;20758;-88
2022/10/10 12:32:46;;;;;;;11.43;3.80;;;27.50;70.50;;;;;;5087880;28;20670;-89
2022/10/10 12:35:43;;;;;;;6.73;3.10;;;30.70;62.60;;;;;;5088729;28;20663;-89
2022/10/10 12:38:21;;;;;;;5.27;2.97;;;30.70;60.40;;;;;;5035151;28;20642;-89
2022/10/10 12:41:52;;;;;;;8.17;3.00;;;32.10;56.80;;;;;;5078547;28;20640;-88
2022/10/10 12:44:23;;;;;;;4.93;3.07;;;27.20;65.80;;;;;;5012271;28;20619;-93
2022/10/10 12:47:26;;;;;;;8.07;2.93;;;29.80;62.30;;;;;;5001135;28;20837;-94
2022/10/10 12:49:56;;;;;;;7.40;3.10;;;31.50;57.50;;;;;;5075575;28;20659;-94
2022/10/10 12:52:30;;;;;;;7.70;3.23;;;30.20;55.40;;;;;;5070365;28;20654;-95
2022/10/10 12:55:04;;;;;;;7.47;3.10;;;28.90;58.50;;;;;;5086550;28;20636;-94
2022/10/10 12:57:37;;;;;;;7.23;3.00;;;29.60;57.40;;;;;;5085618;28;20726;-92
2022/10/10 13:00:15;;;;;;;8.17;3.63;;;28.40;57.40;;;;;;5068174;28;20654;-94
2022/10/10 13:02:48;;;;;;;7.80;4.50;;;27.80;57.90;;;;;;5088282;28;20647;-93